Time;durP1;ratioP1;P1;durP2;ratioP2;P2;SDS_P1;SDS_P2;PMS_P1;PMS_P2;Temp;Humidity;BMP_temperature;BMP_pressure;BME280_temperature;BME280_humidity;BME280_pressure;Samples;Min_cycle;Max_cycle;Signal;HPM_P1;HPM_P2
2022/12/12 00:00:59;;;;;;;56.50;25.53;;;;;;;-0.39;88.74;100909.38;4958509;28;20019;-71
2022/12/12 00:03:24;;;;;;;61.07;26.67;;;;;;;-0.44;87.93;100916.75;4967057;28;20049;-73
2022/12/12 00:05:53;;;;;;;57.20;26.10;;;;;;;-0.54;87.87;100915.53;4977409;28;20034;-70
2022/12/12 00:08:18;;;;;;;65.53;26.63;;;;;;;-0.68;88.59;100907.50;4983419;28;20026;-71
2022/12/12 00:10:44;;;;;;;58.93;25.73;;;;;;;-0.60;88.32;100910.56;4981266;28;20030;-73
2022/12/12 00:13:09;;;;;;;54.30;24.10;;;;;;;-0.61;88.52;100911.53;4980589;28;20373;-71
2022/12/12 00:15:35;;;;;;;61.97;24.53;;;;;;;-0.67;88.88;100909.19;4978460;28;20030;-72
2022/12/12 00:18:00;;;;;;;62.67;25.73;;;;;;;-0.59;88.40;100907.84;4957767;28;20054;-72
2022/12/12 00:20:26;;;;;;;56.40;26.60;;;;;;;-0.60;89.06;100906.09;4958170;28;20494;-73
2022/12/12 00:22:52;;;;;;;52.47;24.30;;;;;;;-0.55;88.64;100913.84;4958157;28;20081;-73
2022/12/12 00:25:17;;;;;;;60.47;25.07;;;;;;;-0.39;88.23;100904.06;4958666;28;20092;-73
2022/12/12 00:27:43;;;;;;;53.90;24.97;;;;;;;-0.27;87.86;100903.34;4958057;28;20030;-73
2022/12/12 00:30:10;;;;;;;61.97;26.97;;;;;;;-0.38;87.78;100916.41;4958342;28;20034;-72
2022/12/12 00:32:35;;;;;;;64.07;27.90;;;;;;;-0.35;87.72;100910.91;4957723;28;20042;-72
2022/12/12 00:35:01;;;;;;;60.60;27.13;;;;;;;-0.32;87.41;100909.88;4958142;28;20392;-73
2022/12/12 00:37:26;;;;;;;63.90;25.93;;;;;;;-0.40;87.83;100912.09;4985672;28;20030;-74
2022/12/12 00:39:52;;;;;;;55.90;24.47;;;;;;;-0.36;87.26;100909.19;4980555;28;20022;-73
2022/12/12 00:42:18;;;;;;;56.13;26.90;;;;;;;-0.34;87.63;100907.28;4974806;28;20040;-71
2022/12/12 00:44:43;;;;;;;57.33;25.73;;;;;;;-0.32;86.95;100910.75;4976064;28;20046;-71
2022/12/12 00:47:09;;;;;;;61.67;27.47;;;;;;;-0.39;87.55;100909.38;4978976;28;20093;-71
2022/12/12 00:49:35;;;;;;;54.90;26.27;;;;;;;-0.51;88.02;100910.06;4974996;28;20022;-72
2022/12/12 00:52:00;;;;;;;70.53;27.17;;;;;;;-0.55;87.92;100904.06;4976705;28;20047;-71
2022/12/12 00:54:26;;;;;;;66.63;29.57;;;;;;;-0.64;88.60;100909.06;4976253;28;20085;-71
2022/12/12 00:56:54;;;;;;;70.07;27.57;;;;;;;-0.70;88.39;100915.56;4979427;28;20031;-71
2022/12/12 00:59:19;;;;;;;67.63;28.80;;;;;;;-0.86;89.02;100910.22;4992091;28;20041;-73
2022/12/12 01:01:46;;;;;;;61.37;27.43;;;;;;;-0.80;88.55;100918.81;4991135;28;20026;-75
2022/12/12 01:04:11;;;;;;;58.90;25.73;;;;;;;-0.76;88.72;100920.38;4993429;28;20037;-75
2022/12/12 01:06:37;;;;;;;68.07;28.27;;;;;;;-0.75;88.41;100919.41;4976497;28;20056;-70
2022/12/12 01:09:03;;;;;;;67.40;27.07;;;;;;;-0.78;88.75;100916.91;4974422;28;20053;-69
2022/12/12 01:11:29;;;;;;;59.33;26.93;;;;;;;-0.86;89.16;100926.16;4974014;28;20033;-73
2022/12/12 01:13:55;;;;;;;60.43;26.53;;;;;;;-0.92;88.85;100910.56;4973927;28;20026;-73
2022/12/12 01:16:22;;;;;;;67.73;29.10;;;;;;;-0.91;89.39;100917.63;4976258;28;20041;-69
2022/12/12 01:18:48;;;;;;;63.13;27.97;;;;;;;-0.99;89.63;100925.13;4976388;28;20032;-72
2022/12/12 01:21:16;;;;;;;68.77;28.70;;;;;;;-1.02;89.76;100925.31;4976233;28;20030;-72
2022/12/12 01:23:41;;;;;;;64.27;28.53;;;;;;;-1.13;90.70;100927.66;4976429;28;20116;-70
2022/12/12 01:26:19;;;;;;;72.73;29.97;;;;;;;-1.15;91.14;100929.56;4976044;28;20130;-73
2022/12/12 01:28:45;;;;;;;63.13;26.40;;;;;;;-1.29;90.73;100926.78;4970202;28;20022;-76
2022/12/12 01:31:11;;;;;;;64.37;29.00;;;;;;;-1.27;91.13;100930.22;4973510;28;20031;-73
2022/12/12 01:33:37;;;;;;;63.27;28.97;;;;;;;-1.30;90.86;100925.06;4967334;28;20448;-74
2022/12/12 01:36:04;;;;;;;69.73;28.10;;;;;;;-1.41;91.60;100923.84;4972710;28;20022;-74
2022/12/12 01:38:29;;;;;;;70.00;29.87;;;;;;;-1.44;91.81;100931.94;4978822;28;20087;-73
2022/12/12 01:40:55;;;;;;;66.00;28.83;;;;;;;-1.54;92.07;100938.69;4981986;28;20081;-75
2022/12/12 01:43:24;;;;;;;70.10;31.57;;;;;;;-1.47;92.07;100931.25;4975626;28;20026;-73
2022/12/12 01:45:59;;;;;;;71.90;29.90;;;;;;;-1.48;92.14;100927.75;4975654;28;20030;-73
2022/12/12 01:48:49;;;;;;;78.73;29.93;;;;;;;-1.54;92.43;100933.38;4968650;28;20090;-74
2022/12/12 01:51:18;;;;;;;72.77;30.33;;;;;;;-1.53;92.03;100929.78;4969232;28;20040;-76
2022/12/12 01:53:44;;;;;;;68.27;28.83;;;;;;;-1.51;91.90;100933.19;4974212;28;20077;-76
2022/12/12 01:56:14;;;;;;;72.73;30.23;;;;;;;-1.59;92.74;100922.13;4958736;28;20098;-70
2022/12/12 01:58:43;;;;;;;66.57;30.33;;;;;;;-1.59;92.63;100935.41;4983829;28;20022;-73
2022/12/12 02:01:09;;;;;;;65.90;29.13;;;;;;;-1.62;92.45;100930.28;4966768;28;20022;-72
2022/12/12 02:03:36;;;;;;;76.13;31.67;;;;;;;-1.68;92.85;100930.59;4974397;28;20030;-72
2022/12/12 02:06:08;;;;;;;67.23;28.97;;;;;;;-1.79;92.22;100932.91;4981797;28;20030;-74
2022/12/12 02:08:34;;;;;;;71.40;31.98;;;;;;;-1.61;92.79;100931.97;4989356;28;20464;-74
2022/12/12 02:11:00;;;;;;;75.20;31.20;;;;;;;-1.50;92.22;100928.75;4976223;28;20053;-71
2022/12/12 02:13:28;;;;;;;73.80;30.93;;;;;;;-1.71;92.75;100933.38;4974858;28;20487;-70
2022/12/12 02:16:03;;;;;;;75.67;30.60;;;;;;;-1.72;93.23;100929.00;4975254;28;20029;-71
2022/12/12 02:18:50;;;;;;;72.70;30.00;;;;;;;-1.70;92.80;100927.13;4975655;28;20124;-71
2022/12/12 02:21:47;;;;;;;76.43;31.53;;;;;;;-1.85;94.55;100930.56;4975379;28;20026;-71
2022/12/12 02:24:25;;;;;;;79.73;29.43;;;;;;;-1.97;94.12;100935.56;4978774;28;20022;-74
2022/12/12 02:27:03;;;;;;;79.93;33.67;;;;;;;-1.84;94.99;100934.94;4974927;28;20089;-71
2022/12/12 02:29:34;;;;;;;80.90;31.23;;;;;;;-1.80;94.23;100936.50;4971048;28;20370;-72
2022/12/12 02:32:19;;;;;;;68.80;31.48;;;;;;;-1.67;93.48;100926.97;4971250;28;20024;-72
2022/12/12 02:35:16;;;;;;;74.13;31.40;;;;;;;-1.85;93.39;100933.22;4974756;28;20205;-72
2022/12/12 02:38:20;;;;;;;74.77;32.63;;;;;;;-1.88;94.18;100930.75;4975494;28;20029;-75
2022/12/12 02:41:00;;;;;;;84.63;32.87;;;;;;;-1.86;93.62;100920.91;4940760;28;20033;-74
2022/12/12 02:43:49;;;;;;;83.17;34.13;;;;;;;-1.94;94.55;100930.09;4974386;28;20026;-74
2022/12/12 02:46:31;;;;;;;77.43;32.90;;;;;;;-1.94;94.31;100924.81;4964180;28;20031;-75
2022/12/12 02:49:03;;;;;;;75.13;30.23;;;;;;;-2.02;93.01;100927.00;4964322;28;20069;-75
2022/12/12 02:51:32;;;;;;;71.97;29.47;;;;;;;-2.21;94.00;100920.88;4967444;28;20022;-71
2022/12/12 02:53:59;;;;;;;74.73;32.77;;;;;;;-2.25;94.44;100925.47;4975498;28;20026;-73
2022/12/12 02:56:45;;;;;;;82.90;32.30;;;;;;;-2.32;94.56;100923.19;4983647;28;20036;-74
2022/12/12 02:59:41;;;;;;;73.73;31.07;;;;;;;-2.47;95.01;100925.66;4968928;28;20023;-73
2022/12/12 03:02:20;;;;;;;75.27;30.87;;;;;;;-2.39;95.44;100927.94;4957485;28;20476;-71
2022/12/12 03:08:08;;;;;;;78.83;32.03;;;;;;;-2.42;95.91;100932.50;4990434;28;20475;-71
2022/12/12 03:11:09;;;;;;;68.57;29.43;;;;;;;-2.47;95.25;100930.97;4968001;28;20022;-74
2022/12/12 03:13:57;;;;;;;89.15;33.20;;;;;;;-2.39;95.56;100927.09;4967520;28;20022;-72
2022/12/12 03:16:38;;;;;;;80.33;32.57;;;;;;;-2.44;95.49;100929.94;4974591;28;20031;-71
2022/12/12 03:19:15;;;;;;;84.88;34.00;;;;;;;-2.52;97.41;100932.97;4974944;28;20080;-71
2022/12/12 03:21:52;;;;;;;80.27;34.93;;;;;;;-2.50;97.56;100936.41;4974631;28;20038;-70
2022/12/12 03:24:23;;;;;;;80.13;33.70;;;;;;;-2.35;97.18;100933.94;4975373;28;20022;-71
2022/12/12 03:27:07;;;;;;;87.25;36.25;;;;;;;-2.34;97.41;100936.53;4978284;28;20050;-72
2022/12/12 03:29:41;;;;;;;89.73;34.37;;;;;;;-2.39;97.13;100922.63;4978809;28;20068;-71
2022/12/12 03:32:11;;;;;;;90.07;33.60;;;;;;;-2.26;97.06;100928.19;4978415;28;20027;-71
2022/12/12 03:34:46;;;;;;;85.80;32.80;;;;;;;-2.34;96.56;100930.38;4978632;28;20026;-70
2022/12/12 03:37:26;;;;;;;83.30;33.67;;;;;;;-2.44;97.56;100923.78;4977937;28;20042;-70
2022/12/12 03:39:57;;;;;;;88.43;35.03;;;;;;;-2.34;97.64;100930.38;4978591;28;20023;-71
2022/12/12 03:42:42;;;;;;;82.95;34.58;;;;;;;-2.32;96.99;100924.06;4978097;28;20018;-70
2022/12/12 03:45:22;;;;;;;91.73;34.50;;;;;;;-2.31;97.07;100930.22;4978392;28;20065;-71
2022/12/12 03:47:50;;;;;;;81.97;33.37;;;;;;;-2.40;97.50;100935.97;4978305;28;20029;-70
2022/12/12 03:50:21;;;;;;;81.87;34.40;;;;;;;-2.27;97.14;100942.41;4977847;28;20030;-71
2022/12/12 03:52:56;;;;;;;82.57;33.67;;;;;;;-2.34;96.50;100935.69;4977975;28;20027;-71
2022/12/12 03:55:25;;;;;;;73.90;30.13;;;;;;;-2.53;95.37;100941.88;4977110;28;20038;-71
2022/12/12 03:57:59;;;;;;;75.97;31.27;;;;;;;-2.59;96.44;100936.84;4977834;28;20026;-71
2022/12/12 04:00:28;;;;;;;81.40;34.23;;;;;;;-2.55;97.63;100938.41;4978184;28;20026;-71
2022/12/12 04:03:17;;;;;;;81.90;36.03;;;;;;;-2.58;97.26;100933.25;4976712;28;20081;-71
2022/12/12 04:14:40;;;;;;;91.17;35.57;;;;;;;-2.89;99.83;100948.88;4993899;28;20480;-71
2022/12/12 04:17:11;;;;;;;92.77;34.00;;;;;;;-2.87;99.57;100952.31;4972289;28;20030;-72
2022/12/12 04:26:37;;;;;;;83.87;34.17;;;;;;;-2.79;99.30;100959.00;4996999;28;20432;-72
2022/12/12 04:28:30;;;;;;;84.27;33.47;;;;;;;-2.98;99.96;100959.91;5001917;28;20022;-72
2022/12/12 04:31:01;;;;;;;85.50;32.97;;;;;;;-2.97;100.00;100966.91;4968497;28;20022;-72
2022/12/12 04:33:39;;;;;;;89.55;34.65;;;;;;;-2.86;99.92;100964.66;4976222;28;20022;-72
2022/12/12 04:36:08;;;;;;;87.87;35.67;;;;;;;-2.77;98.98;100972.16;4967386;28;20454;-72
2022/12/12 04:38:35;;;;;;;94.80;35.67;;;;;;;-3.03;100.00;100963.63;4973153;28;20042;-71
2022/12/12 04:41:05;;;;;;;95.30;36.77;;;;;;;-2.89;100.00;100964.78;4976334;28;20224;-72
2022/12/12 04:43:34;;;;;;;98.90;37.43;;;;;;;-2.97;100.00;100966.91;4975872;28;20026;-72
2022/12/12 04:46:05;;;;;;;87.47;35.27;;;;;;;-2.96;100.00;100973.94;4973337;28;20031;-72
2022/12/12 04:48:45;;;;;;;91.30;37.80;;;;;;;-3.02;100.00;100969.75;4974698;28;20049;-72
2022/12/12 04:51:15;;;;;;;88.67;34.33;;;;;;;-3.18;100.00;100974.91;4967172;28;20031;-71
2022/12/12 04:53:47;;;;;;;101.13;36.83;;;;;;;-3.16;100.00;100977.47;4975885;28;20026;-71
2022/12/12 04:56:18;;;;;;;85.47;35.67;;;;;;;-2.99;100.00;100979.38;4975572;28;20033;-72
2022/12/12 04:58:44;;;;;;;91.15;36.17;;;;;;;-2.91;100.00;100971.94;4976407;28;20494;-72
2022/12/12 05:01:28;;;;;;;90.00;35.13;;;;;;;-2.94;100.00;100977.38;4976173;28;20030;-70
2022/12/12 05:04:00;;;;;;;100.47;37.37;;;;;;;-2.91;100.00;100971.94;4976956;28;20486;-71
2022/12/12 05:06:36;;;;;;;90.87;35.80;;;;;;;-2.91;100.00;100982.53;4976717;28;20033;-71
2022/12/12 05:09:02;;;;;;;86.27;34.07;;;;;;;-2.91;100.00;100987.84;4976946;28;20030;-71
2022/12/12 05:11:28;;;;;;;89.17;36.27;;;;;;;-2.82;99.93;100982.97;4976340;28;20033;-69
2022/12/12 05:13:53;;;;;;;97.80;37.57;;;;;;;-2.83;99.62;100975.94;4976462;28;20117;-72
2022/12/12 05:16:32;;;;;;;87.17;34.73;;;;;;;-2.93;99.75;100973.81;4976204;28;20165;-71
2022/12/12 05:18:58;;;;;;;87.13;33.60;;;;;;;-3.03;100.00;100968.91;4976259;28;20030;-71
2022/12/12 05:21:24;;;;;;;94.50;38.60;;;;;;;-3.14;100.00;100973.81;4976372;28;20041;-71
2022/12/12 05:23:49;;;;;;;97.57;37.00;;;;;;;-3.18;100.00;100974.91;4976508;28;20030;-71
2022/12/12 05:26:18;;;;;;;98.50;39.73;;;;;;;-2.98;100.00;100973.16;4975837;28;20112;-71
2022/12/12 05:28:43;;;;;;;98.03;37.77;;;;;;;-2.95;100.00;100975.66;4975977;28;20022;-71
2022/12/12 05:31:08;;;;;;;90.73;38.30;;;;;;;-2.89;100.00;100978.03;4975987;28;20085;-70
2022/12/12 05:33:34;;;;;;;89.03;36.60;;;;;;;-2.93;99.10;100979.09;4975971;28;20066;-71
2022/12/12 05:35:59;;;;;;;90.93;37.07;;;;;;;-3.08;100.00;100978.00;4976054;28;20026;-70
2022/12/12 05:38:25;;;;;;;94.23;37.27;;;;;;;-3.09;100.00;100979.78;4976153;28;20030;-69
2022/12/12 05:40:50;;;;;;;102.27;38.17;;;;;;;-3.05;100.00;100981.38;4976148;28;20125;-70
2022/12/12 05:43:15;;;;;;;97.43;37.17;;;;;;;-2.95;100.00;100980.94;4975996;28;20076;-70
2022/12/12 05:45:41;;;;;;;102.07;39.63;;;;;;;-3.08;100.00;100970.91;4975711;28;20030;-70
2022/12/12 05:48:06;;;;;;;101.33;40.00;;;;;;;-3.09;100.00;100979.78;4976005;28;20027;-70
2022/12/12 05:50:32;;;;;;;95.63;36.83;;;;;;;-3.09;100.00;100974.47;4975672;28;20061;-70
2022/12/12 05:52:57;;;;;;;112.60;42.00;;;;;;;-3.10;100.00;100983.34;4975633;28;20100;-71
2022/12/12 05:55:22;;;;;;;98.63;37.57;;;;;;;-3.12;100.00;100979.94;4975654;28;20026;-71
2022/12/12 05:57:48;;;;;;;115.37;47.57;;;;;;;-3.10;100.00;100978.06;4975617;28;20030;-70
2022/12/12 06:00:13;;;;;;;99.60;38.63;;;;;;;-3.05;100.00;100976.06;4973626;28;20045;-71
2022/12/12 06:02:39;;;;;;;103.57;38.37;;;;;;;-3.09;100.00;100979.78;4973735;28;20022;-69
2022/12/12 06:05:04;;;;;;;99.63;38.97;;;;;;;-3.19;100.00;100989.09;4991142;28;20094;-70
2022/12/12 06:07:30;;;;;;;102.07;39.13;;;;;;;-3.23;100.00;100979.53;4975232;28;20034;-71
2022/12/12 06:09:55;;;;;;;111.90;41.73;;;;;;;-3.13;100.00;100988.81;4975263;28;20033;-71
2022/12/12 06:12:21;;;;;;;100.90;39.97;;;;;;;-3.08;99.95;100992.09;4975229;28;20034;-72
2022/12/12 06:14:46;;;;;;;101.90;39.23;;;;;;;-3.16;100.00;100988.94;4975374;28;20029;-72
2022/12/12 06:17:12;;;;;;;98.90;38.73;;;;;;;-3.40;100.00;100996.16;4975163;28;20034;-72
2022/12/12 06:19:37;;;;;;;117.20;38.87;;;;;;;-3.34;100.00;100989.72;4975178;28;20128;-72
2022/12/12 06:22:03;;;;;;;99.90;37.53;;;;;;;-3.31;100.00;100990.47;4975302;28;20022;-72
2022/12/12 06:24:28;;;;;;;94.77;36.90;;;;;;;-3.13;99.71;100999.41;4975111;28;20101;-73
2022/12/12 06:26:53;;;;;;;92.13;38.10;;;;;;;-3.43;99.79;100998.94;4974647;28;20045;-72
2022/12/12 06:29:19;;;;;;;96.37;37.37;;;;;;;-3.32;99.86;100996.69;4975003;28;20030;-72
2022/12/12 06:31:44;;;;;;;90.40;35.77;;;;;;;-3.24;99.45;101006.94;4974699;28;20022;-71
2022/12/12 06:34:09;;;;;;;92.67;35.83;;;;;;;-3.14;98.30;101013.53;4975289;28;20022;-72
2022/12/12 06:36:35;;;;;;;91.37;35.13;;;;;;;-3.26;97.92;101008.81;4974569;28;20034;-72
2022/12/12 06:39:01;;;;;;;91.13;35.43;;;;;;;-3.33;98.42;101002.03;4975171;28;20029;-71
2022/12/12 06:41:29;;;;;;;101.33;38.37;;;;;;;-3.33;97.61;101007.34;4974553;28;20018;-71
2022/12/12 06:43:55;;;;;;;97.40;37.37;;;;;;;-3.38;98.46;101014.63;4974829;28;20081;-71
2022/12/12 06:46:24;;;;;;;101.63;38.40;;;;;;;-3.40;98.57;101016.47;4974809;28;20026;-71
2022/12/12 06:48:50;;;;;;;93.33;38.97;;;;;;;-3.36;99.02;101018.06;4974688;28;20022;-72
2022/12/12 06:51:19;;;;;;;96.27;37.70;;;;;;;-3.40;99.29;101021.75;4974548;28;20033;-71
2022/12/12 06:53:45;;;;;;;96.17;36.70;;;;;;;-3.29;99.48;101016.88;4974899;28;20114;-72
2022/12/12 06:56:16;;;;;;;94.30;37.73;;;;;;;-3.24;99.69;101022.84;4974992;28;20119;-72
2022/12/12 06:58:42;;;;;;;108.50;35.47;;;;;;;-3.15;99.91;101027.72;4975531;28;20559;-72
2022/12/12 07:01:10;;;;;;;99.37;37.40;;;;;;;-3.35;99.42;101031.22;4980988;28;20037;-72
2022/12/12 07:03:36;;;;;;;108.50;39.73;;;;;;;-3.33;100.00;101034.66;4980934;28;20018;-72
2022/12/12 07:06:02;;;;;;;100.13;38.47;;;;;;;-3.23;100.00;101035.13;4981098;28;20037;-71
2022/12/12 07:08:27;;;;;;;99.77;37.07;;;;;;;-3.32;99.99;101030.25;4981002;28;20053;-72
2022/12/12 07:10:54;;;;;;;110.70;41.03;;;;;;;-3.25;99.84;101034.34;4980780;28;20026;-71
2022/12/12 07:13:19;;;;;;;112.97;39.77;;;;;;;-3.62;100.00;101025.31;4981300;28;20022;-72
2022/12/12 07:15:47;;;;;;;120.87;42.77;;;;;;;-3.74;100.00;101032.91;4980967;28;20092;-72
2022/12/12 07:18:13;;;;;;;103.83;39.10;;;;;;;-3.48;100.00;101029.19;4980748;28;20058;-71
2022/12/12 07:20:40;;;;;;;108.30;38.20;;;;;;;-3.51;100.00;101034.63;4979922;28;20410;-72
2022/12/12 07:23:07;;;;;;;123.10;42.03;;;;;;;-3.27;100.00;101034.41;4977952;28;20031;-71
2022/12/12 07:25:32;;;;;;;109.93;37.03;;;;;;;-3.14;100.00;101032.09;4998421;28;20030;-71
2022/12/12 07:27:57;;;;;;;107.53;39.43;;;;;;;-3.20;99.68;101037.63;4986598;28;20125;-71
2022/12/12 07:30:23;;;;;;;124.33;40.53;;;;;;;-3.14;99.91;101029.44;4980858;28;20073;-69
2022/12/12 07:32:50;;;;;;;114.20;41.37;;;;;;;-3.12;99.96;101038.19;4981147;28;20542;-71
2022/12/12 07:35:16;;;;;;;115.07;40.80;;;;;;;-3.07;99.52;101036.19;4997488;28;20480;-70
2022/12/12 07:37:41;;;;;;;93.37;36.93;;;;;;;-3.05;99.50;101039.63;4980720;28;20217;-69
2022/12/12 07:40:07;;;;;;;105.33;39.17;;;;;;;-3.03;99.50;101035.13;4992045;28;20025;-69
2022/12/12 07:42:32;;;;;;;92.90;37.67;;;;;;;-3.01;99.35;101035.91;4995310;28;20026;-71
2022/12/12 07:44:58;;;;;;;92.77;36.70;;;;;;;-3.11;98.75;101034.63;4981194;28;20034;-70
2022/12/12 07:47:23;;;;;;;99.63;38.40;;;;;;;-3.39;98.91;101028.78;4976200;28;20034;-69
2022/12/12 07:49:49;;;;;;;98.37;36.37;;;;;;;-3.50;99.30;101031.03;4986838;28;20030;-70
2022/12/12 07:52:14;;;;;;;95.77;39.17;;;;;;;-3.47;99.37;101030.88;4974558;28;20066;-69
2022/12/12 07:54:39;;;;;;;112.33;43.13;;;;;;;-3.40;100.00;101029.69;4975888;28;20113;-71
2022/12/12 07:57:05;;;;;;;98.10;39.17;;;;;;;-3.35;100.00;101038.31;4974936;28;20026;-71
2022/12/12 07:59:30;;;;;;;118.13;41.77;;;;;;;-3.31;100.00;101034.63;4976516;28;20026;-71
2022/12/12 08:01:55;;;;;;;114.53;44.63;;;;;;;-3.25;100.00;101037.00;4974947;28;20371;-71
2022/12/12 08:04:21;;;;;;;106.97;38.43;;;;;;;-3.21;100.00;101027.97;4993001;28;20029;-71
2022/12/12 08:06:47;;;;;;;100.27;38.17;;;;;;;-3.15;100.00;101033.00;4975476;28;20033;-71
2022/12/12 08:09:12;;;;;;;108.53;39.77;;;;;;;-3.20;100.00;101035.00;4976058;28;20049;-69
2022/12/12 08:11:39;;;;;;;100.80;38.50;;;;;;;-3.17;100.00;101042.81;4975116;28;20412;-71
2022/12/12 08:14:08;;;;;;;115.67;43.73;;;;;;;-3.18;100.00;101043.75;5007626;28;20025;-73
2022/12/12 08:16:33;;;;;;;114.00;43.17;;;;;;;-3.19;100.00;101042.03;4977524;28;20077;-72
2022/12/12 08:18:59;;;;;;;97.90;37.73;;;;;;;-3.22;100.00;101052.75;4976996;28;20022;-70
2022/12/12 08:21:26;;;;;;;98.80;37.47;;;;;;;-3.13;99.80;101046.19;4973169;28;20031;-69
2022/12/12 08:23:55;;;;;;;109.97;43.17;;;;;;;-3.06;99.87;101053.81;4979464;28;20032;-71
2022/12/12 08:26:21;;;;;;;109.13;41.77;;;;;;;-3.19;99.29;101052.63;4973154;28;20132;-74
2022/12/12 08:28:48;;;;;;;122.47;40.70;;;;;;;-3.22;100.00;101047.44;4972212;28;20042;-70
2022/12/12 08:31:14;;;;;;;100.57;39.43;;;;;;;-2.95;100.00;101044.53;4986735;28;20098;-72
2022/12/12 08:33:40;;;;;;;105.57;39.43;;;;;;;-2.87;100.00;101050.31;4966324;28;20484;-72
2022/12/12 08:36:18;;;;;;;112.27;41.57;;;;;;;-2.86;100.00;101052.06;4967944;28;20085;-72
2022/12/12 08:38:44;;;;;;;111.63;42.60;;;;;;;-2.90;100.00;101058.44;4965115;28;20093;-73
2022/12/12 08:41:10;;;;;;;108.50;42.07;;;;;;;-2.84;100.00;101063.44;4966792;28;20017;-71
2022/12/12 08:43:37;;;;;;;108.00;43.13;;;;;;;-2.76;99.97;101056.88;4978521;28;20085;-73
2022/12/12 08:46:03;;;;;;;101.67;41.20;;;;;;;-2.68;100.00;101064.47;4960665;28;20034;-71
2022/12/12 08:48:29;;;;;;;105.47;40.07;;;;;;;-2.74;100.00;101059.44;4969549;28;20129;-70
2022/12/12 08:50:55;;;;;;;115.20;42.93;;;;;;;-2.50;99.68;101058.34;4967125;28;20464;-71
2022/12/12 08:53:21;;;;;;;101.93;40.73;;;;;;;-2.46;99.92;101067.88;4975819;28;20113;-71
2022/12/12 08:55:47;;;;;;;102.70;37.57;;;;;;;-2.52;98.58;101070.81;4964699;28;20046;-71
2022/12/12 08:58:13;;;;;;;88.37;35.67;;;;;;;-2.37;98.58;101073.69;4964875;28;20022;-70
2022/12/12 09:00:38;;;;;;;87.87;37.43;;;;;;;-2.23;98.66;101076.53;4963591;28;20088;-70
2022/12/12 09:03:04;;;;;;;91.83;37.03;;;;;;;-2.23;98.47;101076.53;4957701;28;20025;-71
2022/12/12 09:05:29;;;;;;;90.93;37.53;;;;;;;-2.25;98.77;101073.13;4961609;28;20094;-72
2022/12/12 09:07:54;;;;;;;86.27;37.20;;;;;;;-2.01;98.12;101085.22;4974097;28;20062;-73
2022/12/12 09:10:20;;;;;;;90.73;37.47;;;;;;;-2.15;98.59;101079.72;4987792;28;20021;-72
2022/12/12 09:12:45;;;;;;;91.73;36.93;;;;;;;-2.04;98.11;101088.00;4976997;28;20022;-73
2022/12/12 09:15:11;;;;;;;93.47;37.47;;;;;;;-1.98;98.79;101087.72;4980466;28;20491;-72
2022/12/12 09:17:36;;;;;;;92.90;38.00;;;;;;;-1.98;97.96;101093.03;4983532;28;20058;-71
2022/12/12 09:20:02;;;;;;;113.50;46.60;;;;;;;-2.01;98.51;101093.19;4997785;28;20475;-72
2022/12/12 09:22:27;;;;;;;89.83;38.37;;;;;;;-1.83;97.11;101085.25;4972212;28;20024;-72
2022/12/12 09:24:53;;;;;;;99.47;36.90;;;;;;;-1.98;97.52;101082.41;4966689;28;20021;-72
2022/12/12 09:27:18;;;;;;;105.07;38.33;;;;;;;-1.70;97.92;101092.56;4956743;28;20030;-72
2022/12/12 09:29:43;;;;;;;90.57;36.40;;;;;;;-1.64;97.11;101086.09;4962015;28;20137;-73
2022/12/12 09:32:09;;;;;;;90.80;37.70;;;;;;;-1.68;97.17;101084.53;4964345;28;20400;-73
2022/12/12 09:34:36;;;;;;;95.63;41.33;;;;;;;-1.58;96.90;101085.78;4966283;28;20049;-70
2022/12/12 09:37:02;;;;;;;94.13;38.10;;;;;;;-1.50;96.90;101086.28;4967259;28;20046;-71
2022/12/12 09:39:27;;;;;;;95.10;37.87;;;;;;;-1.44;96.38;101083.31;4969818;28;20030;-71
2022/12/12 09:41:53;;;;;;;90.47;36.40;;;;;;;-1.34;95.92;101088.16;4966453;28;20024;-71
2022/12/12 09:44:21;;;;;;;87.47;36.63;;;;;;;-1.19;95.90;101084.72;4969464;28;20086;-70
2022/12/12 09:47:01;;;;;;;84.73;35.40;;;;;;;-1.20;96.21;101080.34;4960510;28;20022;-70
2022/12/12 09:49:44;;;;;;;97.83;35.77;;;;;;;-1.05;95.20;101074.25;4970359;28;20101;-70
2022/12/12 09:52:14;;;;;;;85.17;35.47;;;;;;;-1.23;95.46;101077.88;4958023;28;20029;-71
2022/12/12 09:54:40;;;;;;;78.83;34.27;;;;;;;-1.37;96.35;101079.44;4971364;28;20022;-72
2022/12/12 09:57:11;;;;;;;88.37;37.37;;;;;;;-1.30;96.20;101079.13;4965265;28;20073;-72
2022/12/12 09:59:44;;;;;;;93.80;36.75;;;;;;;-1.44;96.58;101080.66;4967230;28;20089;-72
2022/12/12 10:02:24;;;;;;;82.13;34.70;;;;;;;-1.23;96.09;101076.06;4965515;28;20034;-69
2022/12/12 10:05:00;;;;;;;81.43;34.80;;;;;;;-1.31;98.11;101088.00;4963432;28;20026;-69
2022/12/12 10:07:36;;;;;;;71.27;32.53;;;;;;;-1.14;99.97;101085.34;4969491;28;20033;-70
2022/12/12 10:10:23;;;;;;;77.47;33.80;;;;;;;-0.98;99.70;101096.94;4967825;28;20041;-72
2022/12/12 10:12:49;;;;;;;81.30;33.67;;;;;;;-1.03;100.00;101093.66;4972582;28;20109;-70
2022/12/12 10:15:28;;;;;;;85.13;36.07;;;;;;;-1.21;100.00;101089.28;4971301;28;20022;-72
2022/12/12 10:17:56;;;;;;;82.10;34.73;;;;;;;-1.19;100.00;101087.38;4967049;28;20014;-72
2022/12/12 10:20:29;;;;;;;88.77;34.27;;;;;;;-1.23;100.00;101080.53;4960296;28;20083;-72
2022/12/12 10:23:17;;;;;;;79.57;32.13;;;;;;;-1.16;100.00;101081.94;4962577;28;20014;-71
2022/12/12 10:25:57;;;;;;;78.63;33.77;;;;;;;-1.19;100.00;101085.59;4978845;28;20022;-72
2022/12/12 10:28:25;;;;;;;91.53;35.50;;;;;;;-1.09;100.00;101083.34;4977850;28;20030;-73
2022/12/12 10:30:57;;;;;;;101.07;39.03;;;;;;;-1.21;100.00;101084.81;4970978;28;20046;-71
2022/12/12 10:33:53;;;;;;;96.43;38.00;;;;;;;-1.02;100.00;101084.72;4972416;28;20507;-71
2022/12/12 10:36:24;;;;;;;88.33;30.60;;;;;;;-1.20;100.00;101090.97;4979374;28;20030;-70
2022/12/12 10:39:09;;;;;;;100.82;39.17;;;;;;;-1.27;100.00;101085.13;4971203;28;20033;-72
2022/12/12 10:42:00;;;;;;;94.37;35.27;;;;;;;-1.46;100.00;101085.19;4959995;28;20475;-73
2022/12/12 10:44:34;;;;;;;84.03;33.00;;;;;;;-1.24;100.00;101089.41;4971648;28;20026;-72
2022/12/12 10:47:09;;;;;;;84.20;35.23;;;;;;;-0.91;100.00;101082.38;4971236;28;20669;-73
2022/12/12 10:49:35;;;;;;;92.47;36.97;;;;;;;-0.71;100.00;101077.81;4961904;28;20023;-73
2022/12/12 10:52:15;;;;;;;87.40;34.27;;;;;;;-0.67;100.00;101074.91;4997073;28;20041;-72
2022/12/12 10:54:46;;;;;;;81.30;32.37;;;;;;;-0.58;99.76;101068.25;4954524;28;20033;-70
2022/12/12 10:57:23;;;;;;;94.40;37.47;;;;;;;-0.75;100.00;101065.63;4969602;28;20061;-73
2022/12/12 10:59:54;;;;;;;87.63;35.27;;;;;;;-0.59;100.00;101071.81;4966539;28;20026;-72
2022/12/12 11:02:33;;;;;;;79.50;27.92;;;;;;;-0.66;99.20;101070.44;4967635;28;20037;-72
2022/12/12 11:05:15;;;;;;;109.20;37.73;;;;;;;-0.64;99.88;101073.91;4967757;28;20024;-73
2022/12/12 11:07:47;;;;;;;90.07;35.53;;;;;;;-0.96;100.00;101071.13;4966109;28;20041;-72
2022/12/12 11:10:22;;;;;;;90.45;35.38;;;;;;;-1.11;100.00;101069.25;4962922;28;20042;-71
2022/12/12 11:12:57;;;;;;;75.80;31.47;;;;;;;-1.02;100.00;101068.78;4958552;28;20042;-70
2022/12/12 11:15:39;;;;;;;97.10;37.97;;;;;;;-1.03;100.00;101072.41;4968945;28;20030;-70
2022/12/12 11:18:06;;;;;;;93.47;37.40;;;;;;;-0.91;100.00;101066.44;4962068;28;20027;-71
2022/12/12 11:20:31;;;;;;;91.47;35.53;;;;;;;-0.88;100.00;101060.94;4965693;28;20030;-72
2022/12/12 11:22:57;;;;;;;85.10;35.57;;;;;;;-0.94;100.00;101066.59;4969561;28;20010;-72
2022/12/12 11:25:31;;;;;;;88.80;35.10;;;;;;;-0.95;99.40;101058.69;4969130;28;20030;-69
2022/12/12 11:28:01;;;;;;;96.03;38.10;;;;;;;-0.95;100.00;101064.88;4958971;28;20034;-72
2022/12/12 11:30:33;;;;;;;108.33;43.70;;;;;;;-0.88;100.00;101058.28;4962570;28;20494;-70
2022/12/12 11:33:00;;;;;;;95.27;37.13;;;;;;;-0.78;100.00;101063.09;4960464;28;20109;-71
2022/12/12 11:35:44;;;;;;;86.70;37.43;;;;;;;-0.66;99.44;101065.13;4977401;28;20023;-72